sensor_id;sensor_type;location;lat;lon;timestamp;pressure;altitude;pressure_sealevel;temperature;humidity
23635;BME280;11994;51.038;16.974;2022-07-29T00:00:56;100377.16;;;17.50;48.25
23635;BME280;11994;51.038;16.974;2022-07-29T00:03:22;100390.48;;;17.48;48.33
23635;BME280;11994;51.038;16.974;2022-07-29T00:05:48;100395.92;;;17.45;48.47
23635;BME280;11994;51.038;16.974;2022-07-29T00:08:14;100393.98;;;17.40;48.51
23635;BME280;11994;51.038;16.974;2022-07-29T00:10:41;100391.44;;;17.37;48.63
23635;BME280;11994;51.038;16.974;2022-07-29T00:13:07;100390.73;;;17.34;48.83
23635;BME280;11994;51.038;16.974;2022-07-29T00:15:33;100393.13;;;17.30;48.87
23635;BME280;11994;51.038;16.974;2022-07-29T00:18:00;100387.72;;;17.23;48.99
23635;BME280;11994;51.038;16.974;2022-07-29T00:20:26;100385.69;;;17.19;49.09
23635;BME280;11994;51.038;16.974;2022-07-29T00:22:52;100391.50;;;17.17;49.24
23635;BME280;11994;51.038;16.974;2022-07-29T00:25:18;100393.37;;;17.15;49.33
23635;BME280;11994;51.038;16.974;2022-07-29T00:27:45;100391.80;;;17.11;49.46
23635;BME280;11994;51.038;16.974;2022-07-29T00:30:14;100392.50;;;17.06;49.54
23635;BME280;11994;51.038;16.974;2022-07-29T00:32:40;100391.69;;;17.04;49.67
23635;BME280;11994;51.038;16.974;2022-07-29T00:35:06;100392.79;;;17.00;49.75
23635;BME280;11994;51.038;16.974;2022-07-29T00:37:52;100382.92;;;16.94;49.86
23635;BME280;11994;51.038;16.974;2022-07-29T00:40:19;100380.88;;;16.90;50.02
23635;BME280;11994;51.038;16.974;2022-07-29T00:42:47;100384.86;;;16.90;50.14
23635;BME280;11994;51.038;16.974;2022-07-29T00:45:16;100388.30;;;16.82;50.18
23635;BME280;11994;51.038;16.974;2022-07-29T00:47:43;100388.53;;;16.78;50.32
23635;BME280;11994;51.038;16.974;2022-07-29T00:50:10;100382.35;;;16.77;50.44
23635;BME280;11994;51.038;16.974;2022-07-29T00:52:40;100383.61;;;16.79;50.68
23635;BME280;11994;51.038;16.974;2022-07-29T00:55:10;100386.27;;;16.79;50.68
23635;BME280;11994;51.038;16.974;2022-07-29T00:57:37;100383.68;;;16.77;50.76
23635;BME280;11994;51.038;16.974;2022-07-29T01:00:06;100381.96;;;16.76;50.81
23635;BME280;11994;51.038;16.974;2022-07-29T01:02:34;100386.88;;;16.75;50.96
23635;BME280;11994;51.038;16.974;2022-07-29T01:05:01;100389.20;;;16.73;51.01
23635;BME280;11994;51.038;16.974;2022-07-29T01:07:28;100386.22;;;16.70;51.09
23635;BME280;11994;51.038;16.974;2022-07-29T01:09:56;100376.55;;;16.69;51.28
23635;BME280;11994;51.038;16.974;2022-07-29T01:12:28;100379.98;;;16.71;51.54
23635;BME280;11994;51.038;16.974;2022-07-29T01:14:58;100379.09;;;16.62;51.40
23635;BME280;11994;51.038;16.974;2022-07-29T01:32:11;100373.95;;;16.49;51.91
23635;BME280;11994;51.038;16.974;2022-07-29T01:34:44;100371.55;;;16.43;52.11
23635;BME280;11994;51.038;16.974;2022-07-29T01:40:16;100370.08;;;16.36;52.44
23635;BME280;11994;51.038;16.974;2022-07-29T01:42:49;100373.00;;;16.30;52.39
23635;BME280;11994;51.038;16.974;2022-07-29T01:48:16;100369.11;;;16.19;52.65
23635;BME280;11994;51.038;16.974;2022-07-29T01:51:18;100366.97;;;16.17;52.77
23635;BME280;11994;51.038;16.974;2022-07-29T01:56:36;100361.55;;;16.10;53.21
23635;BME280;11994;51.038;16.974;2022-07-29T01:59:06;100365.79;;;16.04;53.23
23635;BME280;11994;51.038;16.974;2022-07-29T02:01:34;100356.25;;;16.00;53.37
23635;BME280;11994;51.038;16.974;2022-07-29T02:04:03;100351.16;;;15.95;53.45
23635;BME280;11994;51.038;16.974;2022-07-29T02:06:33;100354.19;;;15.86;53.96
23635;BME280;11994;51.038;16.974;2022-07-29T02:09:01;100352.67;;;15.81;54.21
23635;BME280;11994;51.038;16.974;2022-07-29T02:11:30;100349.48;;;15.83;55.66
23635;BME280;11994;51.038;16.974;2022-07-29T02:13:57;100346.67;;;15.87;56.37
23635;BME280;11994;51.038;16.974;2022-07-29T02:16:26;100348.84;;;15.88;56.07
23635;BME280;11994;51.038;16.974;2022-07-29T02:18:56;100343.60;;;15.86;55.85
23635;BME280;11994;51.038;16.974;2022-07-29T02:21:25;100341.49;;;15.84;55.70
23635;BME280;11994;51.038;16.974;2022-07-29T02:23:53;100337.13;;;15.83;56.13
23635;BME280;11994;51.038;16.974;2022-07-29T02:26:21;100342.09;;;15.81;55.68
23635;BME280;11994;51.038;16.974;2022-07-29T02:28:49;100351.14;;;15.65;55.49
23635;BME280;11994;51.038;16.974;2022-07-29T02:31:20;100338.00;;;15.52;55.69
23635;BME280;11994;51.038;16.974;2022-07-29T02:33:49;100345.29;;;15.47;55.78
23635;BME280;11994;51.038;16.974;2022-07-29T02:36:18;100339.44;;;15.39;56.01
23635;BME280;11994;51.038;16.974;2022-07-29T02:38:47;100345.65;;;15.38;56.14
23635;BME280;11994;51.038;16.974;2022-07-29T02:41:30;100342.61;;;15.37;56.16
23635;BME280;11994;51.038;16.974;2022-07-29T02:44:06;100341.50;;;15.31;56.28
23635;BME280;11994;51.038;16.974;2022-07-29T02:46:35;100334.61;;;15.27;56.41
23635;BME280;11994;51.038;16.974;2022-07-29T02:51:58;100349.05;;;15.19;56.47
23635;BME280;11994;51.038;16.974;2022-07-29T02:57:00;100348.17;;;15.08;56.82
23635;BME280;11994;51.038;16.974;2022-07-29T02:59:30;100341.61;;;15.07;56.95
23635;BME280;11994;51.038;16.974;2022-07-29T03:01:58;100351.31;;;15.06;57.09
23635;BME280;11994;51.038;16.974;2022-07-29T03:04:26;100344.20;;;15.08;57.38
23635;BME280;11994;51.038;16.974;2022-07-29T03:06:53;100347.45;;;15.15;57.74
23635;BME280;11994;51.038;16.974;2022-07-29T03:09:21;100348.61;;;15.19;57.54
23635;BME280;11994;51.038;16.974;2022-07-29T03:11:49;100345.72;;;15.25;57.62
23635;BME280;11994;51.038;16.974;2022-07-29T03:14:17;100342.81;;;15.33;57.49
23635;BME280;11994;51.038;16.974;2022-07-29T03:16:44;100342.34;;;15.32;57.43
23635;BME280;11994;51.038;16.974;2022-07-29T03:19:10;100342.94;;;15.28;57.46
23635;BME280;11994;51.038;16.974;2022-07-29T03:21:36;100349.69;;;15.25;57.54
23635;BME280;11994;51.038;16.974;2022-07-29T03:24:02;100348.95;;;15.22;57.57
23635;BME280;11994;51.038;16.974;2022-07-29T03:26:28;100351.25;;;15.19;57.67
23635;BME280;11994;51.038;16.974;2022-07-29T03:28:54;100346.47;;;15.17;57.83
23635;BME280;11994;51.038;16.974;2022-07-29T03:31:20;100356.25;;;15.15;57.91
23635;BME280;11994;51.038;16.974;2022-07-29T03:33:46;100344.06;;;15.11;57.92
23635;BME280;11994;51.038;16.974;2022-07-29T03:36:12;100346.31;;;15.10;58.05
23635;BME280;11994;51.038;16.974;2022-07-29T03:38:40;100347.24;;;15.09;58.11
23635;BME280;11994;51.038;16.974;2022-07-29T03:41:10;100357.42;;;15.08;58.28
23635;BME280;11994;51.038;16.974;2022-07-29T03:43:38;100361.38;;;15.08;58.32
23635;BME280;11994;51.038;16.974;2022-07-29T03:46:07;100361.38;;;15.08;58.48
23635;BME280;11994;51.038;16.974;2022-07-29T03:48:37;100358.60;;;15.11;58.63
23635;BME280;11994;51.038;16.974;2022-07-29T03:51:05;100360.66;;;15.15;58.71
23635;BME280;11994;51.038;16.974;2022-07-29T03:53:32;100372.80;;;15.20;58.78
23635;BME280;11994;51.038;16.974;2022-07-29T03:56:00;100368.19;;;15.25;58.85
23635;BME280;11994;51.038;16.974;2022-07-29T03:58:27;100365.73;;;15.32;58.83
23635;BME280;11994;51.038;16.974;2022-07-29T04:00:56;100366.95;;;15.35;58.74
23635;BME280;11994;51.038;16.974;2022-07-29T04:03:22;100363.50;;;15.32;58.74
23635;BME280;11994;51.038;16.974;2022-07-29T04:06:04;100368.38;;;15.32;58.87
23635;BME280;11994;51.038;16.974;2022-07-29T04:08:34;100365.30;;;15.31;58.94
23635;BME280;11994;51.038;16.974;2022-07-29T04:11:01;100366.14;;;15.32;58.96
23635;BME280;11994;51.038;16.974;2022-07-29T04:13:27;100361.34;;;15.31;59.05
23635;BME280;11994;51.038;16.974;2022-07-29T04:15:53;100355.09;;;15.34;59.10
23635;BME280;11994;51.038;16.974;2022-07-29T04:18:19;100354.52;;;15.37;59.21
23635;BME280;11994;51.038;16.974;2022-07-29T04:20:45;100356.56;;;15.41;59.30
23635;BME280;11994;51.038;16.974;2022-07-29T04:23:11;100360.82;;;15.45;59.38
23635;BME280;11994;51.038;16.974;2022-07-29T04:25:40;100354.89;;;15.50;59.55
23635;BME280;11994;51.038;16.974;2022-07-29T04:28:07;100362.37;;;15.60;59.67
23635;BME280;11994;51.038;16.974;2022-07-29T04:30:35;100358.42;;;15.70;59.77
23635;BME280;11994;51.038;16.974;2022-07-29T04:33:03;100355.52;;;15.76;59.75
23635;BME280;11994;51.038;16.974;2022-07-29T04:35:36;100360.41;;;15.85;59.67
23635;BME280;11994;51.038;16.974;2022-07-29T04:38:04;100360.03;;;15.94;59.66
23635;BME280;11994;51.038;16.974;2022-07-29T04:40:31;100357.79;;;16.05;59.69
23635;BME280;11994;51.038;16.974;2022-07-29T04:42:59;100359.52;;;16.16;59.63
23635;BME280;11994;51.038;16.974;2022-07-29T04:45:26;100358.31;;;16.23;59.37
23635;BME280;11994;51.038;16.974;2022-07-29T04:47:53;100357.38;;;16.34;59.38
23635;BME280;11994;51.038;16.974;2022-07-29T04:50:20;100355.98;;;16.46;59.38
23635;BME280;11994;51.038;16.974;2022-07-29T04:52:46;100356.79;;;16.58;59.28
23635;BME280;11994;51.038;16.974;2022-07-29T04:55:12;100350.60;;;16.67;59.17
23635;BME280;11994;51.038;16.974;2022-07-29T04:57:38;100346.58;;;16.77;59.02
23635;BME280;11994;51.038;16.974;2022-07-29T05:00:05;100351.73;;;16.90;58.87
23635;BME280;11994;51.038;16.974;2022-07-29T05:02:32;100346.52;;;16.97;58.70
23635;BME280;11994;51.038;16.974;2022-07-29T05:04:58;100352.47;;;17.02;58.52
23635;BME280;11994;51.038;16.974;2022-07-29T05:07:24;100351.92;;;17.04;58.32
23635;BME280;11994;51.038;16.974;2022-07-29T05:09:50;100359.91;;;17.13;58.23
23635;BME280;11994;51.038;16.974;2022-07-29T05:12:15;100358.35;;;17.17;57.99
23635;BME280;11994;51.038;16.974;2022-07-29T05:14:41;100358.09;;;17.23;57.93
23635;BME280;11994;51.038;16.974;2022-07-29T05:17:07;100368.17;;;17.34;57.78
23635;BME280;11994;51.038;16.974;2022-07-29T05:19:33;100369.34;;;17.37;57.68
23635;BME280;11994;51.038;16.974;2022-07-29T05:21:59;100359.21;;;17.36;57.50
23635;BME280;11994;51.038;16.974;2022-07-29T05:24:25;100355.23;;;17.36;57.49
23635;BME280;11994;51.038;16.974;2022-07-29T05:26:51;100358.27;;;17.37;57.48
23635;BME280;11994;51.038;16.974;2022-07-29T05:29:17;100357.36;;;17.38;57.37
23635;BME280;11994;51.038;16.974;2022-07-29T05:31:43;100356.95;;;17.37;57.34
23635;BME280;11994;51.038;16.974;2022-07-29T05:34:09;100354.27;;;17.39;57.36
23635;BME280;11994;51.038;16.974;2022-07-29T05:36:34;100346.23;;;17.40;57.42
23635;BME280;11994;51.038;16.974;2022-07-29T05:39:00;100349.19;;;17.51;57.56
23635;BME280;11994;51.038;16.974;2022-07-29T05:41:26;100350.48;;;17.70;57.47
23635;BME280;11994;51.038;16.974;2022-07-29T05:43:52;100359.00;;;17.76;57.16
23635;BME280;11994;51.038;16.974;2022-07-29T05:46:18;100352.19;;;17.79;57.03
23635;BME280;11994;51.038;16.974;2022-07-29T05:48:44;100353.14;;;17.78;56.99
23635;BME280;11994;51.038;16.974;2022-07-29T05:51:10;100353.62;;;17.78;57.02
23635;BME280;11994;51.038;16.974;2022-07-29T05:53:36;100360.80;;;17.84;57.09
23635;BME280;11994;51.038;16.974;2022-07-29T05:56:03;100360.27;;;17.95;57.07
23635;BME280;11994;51.038;16.974;2022-07-29T05:58:30;100360.66;;;18.04;56.81
23635;BME280;11994;51.038;16.974;2022-07-29T06:00:56;100353.84;;;18.07;56.56
23635;BME280;11994;51.038;16.974;2022-07-29T06:03:26;100360.72;;;18.11;56.56
23635;BME280;11994;51.038;16.974;2022-07-29T06:05:52;100356.73;;;18.20;56.60
23635;BME280;11994;51.038;16.974;2022-07-29T06:08:18;100347.31;;;18.31;56.22
23635;BME280;11994;51.038;16.974;2022-07-29T06:10:45;100346.66;;;18.43;55.89
23635;BME280;11994;51.038;16.974;2022-07-29T06:13:11;100347.27;;;18.57;55.50
23635;BME280;11994;51.038;16.974;2022-07-29T06:15:38;100350.09;;;18.69;55.17
23635;BME280;11994;51.038;16.974;2022-07-29T06:18:03;100344.80;;;18.85;55.08
23635;BME280;11994;51.038;16.974;2022-07-29T06:20:31;100340.55;;;18.98;54.71
23635;BME280;11994;51.038;16.974;2022-07-29T06:22:58;100342.44;;;19.11;54.87
23635;BME280;11994;51.038;16.974;2022-07-29T06:25:24;100337.60;;;19.26;53.99
23635;BME280;11994;51.038;16.974;2022-07-29T06:27:52;100340.89;;;19.38;53.79
23635;BME280;11994;51.038;16.974;2022-07-29T06:30:18;100346.38;;;19.51;53.57
23635;BME280;11994;51.038;16.974;2022-07-29T06:32:44;100344.05;;;19.60;53.11
23635;BME280;11994;51.038;16.974;2022-07-29T06:35:09;100349.02;;;19.66;52.91
23635;BME280;11994;51.038;16.974;2022-07-29T06:37:35;100342.58;;;19.70;53.10
23635;BME280;11994;51.038;16.974;2022-07-29T06:40:03;100354.41;;;19.80;53.12
23635;BME280;11994;51.038;16.974;2022-07-29T06:42:48;100354.72;;;19.90;52.17
23635;BME280;11994;51.038;16.974;2022-07-29T06:45:14;100352.28;;;20.01;51.68
23635;BME280;11994;51.038;16.974;2022-07-29T06:47:41;100359.50;;;20.14;52.22
23635;BME280;11994;51.038;16.974;2022-07-29T06:50:07;100356.18;;;20.32;51.51
23635;BME280;11994;51.038;16.974;2022-07-29T06:52:36;100360.88;;;20.42;51.85
23635;BME280;11994;51.038;16.974;2022-07-29T06:55:02;100354.12;;;20.51;51.38
23635;BME280;11994;51.038;16.974;2022-07-29T06:57:28;100354.50;;;20.52;50.36
23635;BME280;11994;51.038;16.974;2022-07-29T06:59:56;100353.17;;;20.52;50.60
23635;BME280;11994;51.038;16.974;2022-07-29T07:02:22;100356.13;;;20.54;50.26
23635;BME280;11994;51.038;16.974;2022-07-29T07:04:48;100355.17;;;20.55;50.23
23635;BME280;11994;51.038;16.974;2022-07-29T07:07:14;100354.50;;;20.59;50.41
23635;BME280;11994;51.038;16.974;2022-07-29T07:09:40;100356.78;;;20.65;50.34
23635;BME280;11994;51.038;16.974;2022-07-29T07:12:06;100350.78;;;20.68;50.02
23635;BME280;11994;51.038;16.974;2022-07-29T07:14:32;100346.38;;;20.81;50.48
23635;BME280;11994;51.038;16.974;2022-07-29T07:16:59;100350.78;;;21.03;50.14
23635;BME280;11994;51.038;16.974;2022-07-29T07:19:26;100346.55;;;21.20;50.00
23635;BME280;11994;51.038;16.974;2022-07-29T07:21:53;100336.98;;;21.37;49.38
23635;BME280;11994;51.038;16.974;2022-07-29T07:24:19;100332.56;;;21.43;49.20
23635;BME280;11994;51.038;16.974;2022-07-29T07:26:45;100327.32;;;21.49;48.95
23635;BME280;11994;51.038;16.974;2022-07-29T07:29:10;100331.52;;;21.53;49.21
23635;BME280;11994;51.038;16.974;2022-07-29T07:31:37;100331.48;;;21.60;49.35
23635;BME280;11994;51.038;16.974;2022-07-29T07:34:03;100303.89;;;21.59;49.34
23635;BME280;11994;51.038;16.974;2022-07-29T07:36:30;100306.25;;;21.64;49.18
23635;BME280;11994;51.038;16.974;2022-07-29T07:38:55;100306.25;;;21.64;49.18
23635;BME280;11994;51.038;16.974;2022-07-29T07:41:22;100325.48;;;21.83;49.13
23635;BME280;11994;51.038;16.974;2022-07-29T07:43:47;100324.97;;;21.90;48.85
23635;BME280;11994;51.038;16.974;2022-07-29T07:46:14;100313.05;;;21.89;48.92
23635;BME280;11994;51.038;16.974;2022-07-29T07:48:40;100302.20;;;21.97;48.71
23635;BME280;11994;51.038;16.974;2022-07-29T07:51:06;100331.53;;;22.24;48.54
23635;BME280;11994;51.038;16.974;2022-07-29T07:53:33;100324.15;;;22.27;48.74
23635;BME280;11994;51.038;16.974;2022-07-29T07:55:59;100329.30;;;22.30;48.81
23635;BME280;11994;51.038;16.974;2022-07-29T07:58:25;100324.86;;;22.36;48.77
23635;BME280;11994;51.038;16.974;2022-07-29T08:00:51;100325.23;;;22.37;48.84
23635;BME280;11994;51.038;16.974;2022-07-29T08:03:17;100326.24;;;22.42;48.84
23635;BME280;11994;51.038;16.974;2022-07-29T08:05:43;100332.80;;;22.50;48.89
23635;BME280;11994;51.038;16.974;2022-07-29T08:08:09;100331.40;;;22.57;48.91
23635;BME280;11994;51.038;16.974;2022-07-29T08:10:35;100333.27;;;22.62;48.81
23635;BME280;11994;51.038;16.974;2022-07-29T08:13:23;100329.96;;;22.71;48.80
23635;BME280;11994;51.038;16.974;2022-07-29T08:15:50;100326.11;;;22.75;48.68
23635;BME280;11994;51.038;16.974;2022-07-29T08:18:30;100315.80;;;22.82;48.87
23635;BME280;11994;51.038;16.974;2022-07-29T08:20:58;100315.98;;;22.91;48.70
23635;BME280;11994;51.038;16.974;2022-07-29T08:23:24;100320.91;;;22.97;48.36
23635;BME280;11994;51.038;16.974;2022-07-29T08:25:51;100326.05;;;23.00;48.44
23635;BME280;11994;51.038;16.974;2022-07-29T08:28:18;100327.31;;;23.07;48.60
23635;BME280;11994;51.038;16.974;2022-07-29T08:30:44;100327.78;;;23.19;48.27
23635;BME280;11994;51.038;16.974;2022-07-29T08:33:10;100329.20;;;23.30;48.23
23635;BME280;11994;51.038;16.974;2022-07-29T08:35:36;100326.70;;;23.40;48.84
23635;BME280;11994;51.038;16.974;2022-07-29T08:38:04;100324.32;;;23.48;48.44
23635;BME280;11994;51.038;16.974;2022-07-29T08:40:30;100326.17;;;23.53;47.98
23635;BME280;11994;51.038;16.974;2022-07-29T08:42:56;100329.69;;;23.53;47.92
23635;BME280;11994;51.038;16.974;2022-07-29T08:45:23;100327.77;;;23.55;47.67
23635;BME280;11994;51.038;16.974;2022-07-29T08:47:49;100327.06;;;23.59;47.42
23635;BME280;11994;51.038;16.974;2022-07-29T08:50:14;100331.09;;;23.64;47.29
23635;BME280;11994;51.038;16.974;2022-07-29T08:52:41;100322.37;;;23.73;47.39
23635;BME280;11994;51.038;16.974;2022-07-29T08:55:09;100324.59;;;23.79;47.13
23635;BME280;11994;51.038;16.974;2022-07-29T08:57:36;100318.44;;;23.90;46.79
23635;BME280;11994;51.038;16.974;2022-07-29T09:00:06;100319.20;;;24.03;46.52
23635;BME280;11994;51.038;16.974;2022-07-29T09:02:38;100311.91;;;24.10;46.71
23635;BME280;11994;51.038;16.974;2022-07-29T09:05:07;100309.39;;;24.25;46.42
23635;BME280;11994;51.038;16.974;2022-07-29T09:07:34;100309.41;;;24.36;46.67
23635;BME280;11994;51.038;16.974;2022-07-29T09:10:02;100305.41;;;24.47;45.82
23635;BME280;11994;51.038;16.974;2022-07-29T09:12:30;100309.31;;;24.49;45.38
23635;BME280;11994;51.038;16.974;2022-07-29T09:14:56;100306.98;;;24.55;45.29
23635;BME280;11994;51.038;16.974;2022-07-29T09:17:41;100305.45;;;24.69;45.82
23635;BME280;11994;51.038;16.974;2022-07-29T09:20:10;100295.41;;;24.88;45.99
23635;BME280;11994;51.038;16.974;2022-07-29T09:22:39;100304.06;;;25.02;45.44
23635;BME280;11994;51.038;16.974;2022-07-29T09:25:05;100295.91;;;24.98;45.09
23635;BME280;11994;51.038;16.974;2022-07-29T09:27:32;100297.60;;;24.94;44.66
23635;BME280;11994;51.038;16.974;2022-07-29T09:30:04;100303.48;;;24.93;44.93
23635;BME280;11994;51.038;16.974;2022-07-29T09:32:30;100304.70;;;24.89;45.06
23635;BME280;11994;51.038;16.974;2022-07-29T09:35:17;100300.67;;;24.89;44.95
23635;BME280;11994;51.038;16.974;2022-07-29T09:37:45;100296.40;;;24.87;45.14
23635;BME280;11994;51.038;16.974;2022-07-29T09:40:14;100288.09;;;24.84;45.32
23635;BME280;11994;51.038;16.974;2022-07-29T09:42:45;100292.63;;;24.84;45.14
23635;BME280;11994;51.038;16.974;2022-07-29T09:48:18;100291.77;;;24.83;45.31
23635;BME280;11994;51.038;16.974;2022-07-29T09:50:49;100290.80;;;24.79;45.29
23635;BME280;11994;51.038;16.974;2022-07-29T09:53:33;100293.36;;;24.75;45.42
23635;BME280;11994;51.038;16.974;2022-07-29T09:56:04;100286.77;;;24.79;45.41
23635;BME280;11994;51.038;16.974;2022-07-29T09:58:30;100283.59;;;24.85;45.73
23635;BME280;11994;51.038;16.974;2022-07-29T10:00:58;100280.88;;;24.90;45.68
23635;BME280;11994;51.038;16.974;2022-07-29T10:03:24;100281.86;;;25.00;45.82
23635;BME280;11994;51.038;16.974;2022-07-29T10:06:05;100283.06;;;25.07;45.35
23635;BME280;11994;51.038;16.974;2022-07-29T10:08:35;100278.78;;;25.05;45.58
23635;BME280;11994;51.038;16.974;2022-07-29T10:11:18;100279.54;;;25.07;45.60
23635;BME280;11994;51.038;16.974;2022-07-29T10:13:39;100276.94;;;25.11;45.43
23635;BME280;11994;51.038;16.974;2022-07-29T10:16:06;100271.09;;;25.11;45.27
23635;BME280;11994;51.038;16.974;2022-07-29T10:18:34;100270.11;;;25.12;45.32
23635;BME280;11994;51.038;16.974;2022-07-29T10:21:01;100274.50;;;25.13;45.01
23635;BME280;11994;51.038;16.974;2022-07-29T10:23:29;100271.45;;;25.12;45.16
23635;BME280;11994;51.038;16.974;2022-07-29T10:25:55;100274.02;;;25.14;44.94
23635;BME280;11994;51.038;16.974;2022-07-29T10:28:22;100269.62;;;25.13;44.75
23635;BME280;11994;51.038;16.974;2022-07-29T10:30:51;100265.09;;;25.13;45.03
23635;BME280;11994;51.038;16.974;2022-07-29T10:39:55;100263.60;;;25.37;45.18
23635;BME280;11994;51.038;16.974;2022-07-29T10:42:39;100258.89;;;25.55;44.60
23635;BME280;11994;51.038;16.974;2022-07-29T10:45:06;100251.77;;;25.65;44.88
23635;BME280;11994;51.038;16.974;2022-07-29T10:47:32;100262.83;;;25.77;44.59
23635;BME280;11994;51.038;16.974;2022-07-29T10:50:04;100260.61;;;25.82;44.33
23635;BME280;11994;51.038;16.974;2022-07-29T10:55:33;100253.38;;;25.83;44.37
23635;BME280;11994;51.038;16.974;2022-07-29T10:58:16;100259.22;;;25.88;44.44
23635;BME280;11994;51.038;16.974;2022-07-29T11:00:45;100260.06;;;25.94;44.18
23635;BME280;11994;51.038;16.974;2022-07-29T11:03:44;100254.20;;;25.94;43.96
23635;BME280;11994;51.038;16.974;2022-07-29T11:06:12;100262.77;;;25.88;43.83
23635;BME280;11994;51.038;16.974;2022-07-29T11:08:39;100250.05;;;25.85;43.80
23635;BME280;11994;51.038;16.974;2022-07-29T11:13:54;100254.95;;;25.85;43.74
23635;BME280;11994;51.038;16.974;2022-07-29T11:16:22;100252.97;;;25.87;43.60
23635;BME280;11994;51.038;16.974;2022-07-29T11:21:43;100247.84;;;25.95;44.06
23635;BME280;11994;51.038;16.974;2022-07-29T11:27:11;100248.25;;;26.06;43.59
23635;BME280;11994;51.038;16.974;2022-07-29T11:29:52;100241.64;;;26.04;43.47
23635;BME280;11994;51.038;16.974;2022-07-29T11:32:24;100240.05;;;26.07;43.55
23635;BME280;11994;51.038;16.974;2022-07-29T11:37:42;100247.36;;;26.11;43.42
23635;BME280;11994;51.038;16.974;2022-07-29T11:40:11;100253.15;;;26.06;43.27
23635;BME280;11994;51.038;16.974;2022-07-29T11:42:41;100244.67;;;26.11;43.58
23635;BME280;11994;51.038;16.974;2022-07-29T11:45:11;100246.25;;;26.13;43.11
23635;BME280;11994;51.038;16.974;2022-07-29T11:50:34;100247.34;;;26.16;43.18
23635;BME280;11994;51.038;16.974;2022-07-29T11:53:10;100241.33;;;26.18;42.92
23635;BME280;11994;51.038;16.974;2022-07-29T11:55:38;100244.72;;;26.20;42.66
23635;BME280;11994;51.038;16.974;2022-07-29T11:58:06;100244.24;;;26.21;42.92
23635;BME280;11994;51.038;16.974;2022-07-29T12:00:38;100243.13;;;26.23;42.83
23635;BME280;11994;51.038;16.974;2022-07-29T12:03:07;100241.84;;;26.27;42.85
23635;BME280;11994;51.038;16.974;2022-07-29T12:05:47;100237.20;;;26.29;41.90
23635;BME280;11994;51.038;16.974;2022-07-29T12:08:13;100237.00;;;26.21;42.57
23635;BME280;11994;51.038;16.974;2022-07-29T12:10:49;100238.22;;;26.23;42.56
23635;BME280;11994;51.038;16.974;2022-07-29T12:13:18;100228.36;;;26.33;42.65
23635;BME280;11994;51.038;16.974;2022-07-29T12:15:55;100230.10;;;26.43;42.71
23635;BME280;11994;51.038;16.974;2022-07-29T12:18:22;100227.73;;;26.50;42.41
23635;BME280;11994;51.038;16.974;2022-07-29T12:20:57;100229.50;;;26.45;42.21
23635;BME280;11994;51.038;16.974;2022-07-29T12:23:23;100226.22;;;26.42;42.20
23635;BME280;11994;51.038;16.974;2022-07-29T12:25:49;100226.41;;;26.44;42.35
23635;BME280;11994;51.038;16.974;2022-07-29T12:28:15;100218.44;;;26.48;42.13
23635;BME280;11994;51.038;16.974;2022-07-29T12:30:45;100215.10;;;26.50;42.11
23635;BME280;11994;51.038;16.974;2022-07-29T12:33:25;100214.63;;;26.51;41.95
23635;BME280;11994;51.038;16.974;2022-07-29T12:35:58;100206.32;;;26.48;41.96
23635;BME280;11994;51.038;16.974;2022-07-29T12:38:26;100212.70;;;26.47;42.08
23635;BME280;11994;51.038;16.974;2022-07-29T12:40:53;100214.27;;;26.50;42.17
23635;BME280;11994;51.038;16.974;2022-07-29T12:43:21;100200.94;;;26.48;42.09
23635;BME280;11994;51.038;16.974;2022-07-29T12:45:55;100202.63;;;26.49;42.27
23635;BME280;11994;51.038;16.974;2022-07-29T12:48:32;100202.73;;;26.53;42.10
23635;BME280;11994;51.038;16.974;2022-07-29T12:51:03;100209.37;;;26.55;42.05
23635;BME280;11994;51.038;16.974;2022-07-29T12:53:31;100202.02;;;26.51;42.02
23635;BME280;11994;51.038;16.974;2022-07-29T12:55:58;100199.33;;;26.51;41.99
23635;BME280;11994;51.038;16.974;2022-07-29T12:58:35;100197.70;;;26.60;42.27
23635;BME280;11994;51.038;16.974;2022-07-29T13:01:11;100199.98;;;26.74;41.86
23635;BME280;11994;51.038;16.974;2022-07-29T13:03:45;100185.75;;;26.77;41.85
23635;BME280;11994;51.038;16.974;2022-07-29T13:09:12;100172.73;;;27.01;41.79
23635;BME280;11994;51.038;16.974;2022-07-29T13:11:43;100185.03;;;27.09;41.06
23635;BME280;11994;51.038;16.974;2022-07-29T13:14:12;100186.16;;;26.97;40.92
23635;BME280;11994;51.038;16.974;2022-07-29T13:17:04;100183.49;;;26.82;41.23
23635;BME280;11994;51.038;16.974;2022-07-29T13:19:46;100186.48;;;26.79;41.64
23635;BME280;11994;51.038;16.974;2022-07-29T13:22:22;100185.06;;;26.85;41.45
23635;BME280;11994;51.038;16.974;2022-07-29T13:24:57;100179.10;;;26.81;41.33
23635;BME280;11994;51.038;16.974;2022-07-29T13:27:29;100182.80;;;26.80;41.63
23635;BME280;11994;51.038;16.974;2022-07-29T13:29:58;100183.94;;;26.87;41.76
23635;BME280;11994;51.038;16.974;2022-07-29T13:32:27;100177.85;;;26.95;41.28
23635;BME280;11994;51.038;16.974;2022-07-29T13:34:59;100176.72;;;26.97;41.38
23635;BME280;11994;51.038;16.974;2022-07-29T13:37:27;100163.25;;;26.97;41.62
23635;BME280;11994;51.038;16.974;2022-07-29T13:39:55;100167.42;;;26.96;40.95
23635;BME280;11994;51.038;16.974;2022-07-29T13:42:22;100160.59;;;26.82;41.35
23635;BME280;11994;51.038;16.974;2022-07-29T13:44:48;100163.98;;;26.84;41.25
23635;BME280;11994;51.038;16.974;2022-07-29T13:47:16;100161.89;;;26.88;41.56